createdAt,value
2022-08-08T00:01:15.859Z,2.17
2022-08-08T00:03:51.085Z,1.93
2022-08-08T00:06:34.987Z,2.00
2022-08-08T00:09:09.399Z,1.90
2022-08-08T00:11:47.155Z,2.00
2022-08-08T00:14:57.251Z,1.60
2022-08-08T00:18:02.201Z,1.90
2022-08-08T00:20:36.075Z,1.70
2022-08-08T00:23:08.557Z,1.93
2022-08-08T00:25:46.250Z,1.80
2022-08-08T00:28:35.418Z,1.73
2022-08-08T00:32:16.410Z,1.80
2022-08-08T00:34:27.502Z,2.00
2022-08-08T00:37:03.380Z,2.17
2022-08-08T00:41:08.860Z,1.77
2022-08-08T00:42:57.215Z,1.73
2022-08-08T00:46:02.042Z,2.03
2022-08-08T00:49:01.138Z,2.20
2022-08-08T00:52:03.879Z,2.27
2022-08-08T00:54:52.585Z,2.10
2022-08-08T00:58:12.704Z,1.90
2022-08-08T01:00:53.437Z,2.00
2022-08-08T01:04:10.873Z,2.23
2022-08-08T01:07:34.776Z,1.83
2022-08-08T01:10:59.804Z,2.33
2022-08-08T01:14:02.768Z,2.20
2022-08-08T01:16:46.357Z,2.20
2022-08-08T01:20:02.710Z,2.10
2022-08-08T01:23:04.945Z,1.93
2022-08-08T01:26:11.804Z,2.57
2022-08-08T01:29:14.653Z,2.10
2022-08-08T01:32:17.696Z,2.00
2022-08-08T01:35:30.597Z,2.20
2022-08-08T01:38:42.647Z,2.20
2022-08-08T01:41:20.425Z,2.33
2022-08-08T01:43:53.442Z,2.20
2022-08-08T01:46:47.640Z,2.37
2022-08-08T01:49:38.401Z,2.40
2022-08-08T01:53:06.827Z,2.37
2022-08-08T01:56:27.683Z,2.13
2022-08-08T01:58:17.545Z,2.03
2022-08-08T02:01:17.199Z,2.30
2022-08-08T02:04:01.826Z,2.50
2022-08-08T02:06:55.724Z,2.40
2022-08-08T02:10:01.478Z,1.97
2022-08-08T02:12:33.278Z,2.00
2022-08-08T02:15:11.131Z,2.33
2022-08-08T02:17:47.513Z,2.40
2022-08-08T02:21:03.094Z,2.60
2022-08-08T02:23:22.759Z,2.23
2022-08-08T02:26:03.114Z,2.40
2022-08-08T02:28:51.616Z,2.30
2022-08-08T02:31:58.201Z,2.80
2022-08-08T02:35:08.316Z,2.70
2022-08-08T02:38:25.459Z,2.40
2022-08-08T02:41:59.446Z,2.43
2022-08-08T02:44:37.847Z,2.47
2022-08-08T02:48:03.150Z,3.00
2022-08-08T02:51:21.102Z,2.50
2022-08-08T02:54:38.731Z,2.37
2022-08-08T02:57:52.212Z,2.83
2022-08-08T03:00:31.306Z,2.70
2022-08-08T03:05:01.608Z,2.70
2022-08-08T03:07:07.179Z,2.63
2022-08-08T03:10:32.503Z,2.73
2022-08-08T03:16:00.903Z,2.93
2022-08-08T03:16:39.657Z,2.93
2022-08-08T03:19:37.522Z,2.90
2022-08-08T03:22:48.282Z,2.70
2022-08-08T03:24:56.966Z,2.83
2022-08-08T03:27:30.490Z,2.80
2022-08-08T03:30:08.180Z,3.00
2022-08-08T03:33:00.068Z,3.13
2022-08-08T03:35:39.480Z,3.20
2022-08-08T03:38:55.863Z,3.40
2022-08-08T03:40:57.760Z,3.40
2022-08-08T03:43:38.250Z,3.47
2022-08-08T03:46:09.298Z,3.23
2022-08-08T03:49:30.995Z,3.43
2022-08-08T03:51:40.020Z,3.20
2022-08-08T03:54:15.749Z,3.20
2022-08-08T03:58:33.653Z,3.80
2022-08-08T04:00:02.475Z,3.70
2022-08-08T04:02:47.373Z,3.93
2022-08-08T04:05:19.167Z,3.63
2022-08-08T04:07:47.862Z,3.90
2022-08-08T04:10:19.211Z,3.90
2022-08-08T04:12:48.609Z,3.80
2022-08-08T04:15:18.064Z,3.80
2022-08-08T04:17:59.116Z,3.70
2022-08-08T04:20:28.232Z,4.13
2022-08-08T04:22:58.223Z,3.83
2022-08-08T04:25:29.888Z,4.23
2022-08-08T04:28:37.138Z,4.20
2022-08-08T04:30:50.697Z,3.57
2022-08-08T04:33:23.326Z,4.30
2022-08-08T04:35:51.788Z,4.00
2022-08-08T04:38:21.609Z,3.80
2022-08-08T04:40:53.509Z,4.37
2022-08-08T04:43:32.376Z,4.00
2022-08-08T04:46:11.929Z,4.27
2022-08-08T04:48:43.456Z,4.80
2022-08-08T04:51:12.044Z,4.13
2022-08-08T04:54:27.560Z,4.30
2022-08-08T04:56:33.776Z,4.13
2022-08-08T04:59:03.317Z,4.90
2022-08-08T05:01:35.532Z,4.03
2022-08-08T05:04:15.792Z,4.43
2022-08-08T05:06:46.715Z,4.57
2022-08-08T05:09:15.857Z,4.40
2022-08-08T05:11:47.733Z,4.13
2022-08-08T05:14:25.933Z,4.47
2022-08-08T05:17:00.984Z,4.50
2022-08-08T05:20:09.995Z,4.03
2022-08-08T05:22:17.903Z,4.40
2022-08-08T05:24:48.102Z,4.77
2022-08-08T05:27:17.284Z,4.17
2022-08-08T05:29:51.687Z,4.30
2022-08-08T05:32:27.157Z,4.13
2022-08-08T05:35:04.601Z,4.27
2022-08-08T05:37:52.095Z,4.40
2022-08-08T05:40:28.587Z,4.30
2022-08-08T05:43:40.148Z,4.30
2022-08-08T05:46:03.249Z,4.87
2022-08-08T05:48:34.594Z,5.47
2022-08-08T05:51:14.930Z,4.43
2022-08-08T05:54:24.051Z,3.97
2022-08-08T05:56:42.691Z,3.80
2022-08-08T05:59:59.350Z,4.33
2022-08-08T06:02:34.162Z,4.40
2022-08-08T06:05:24.324Z,4.40
2022-08-08T06:08:00.194Z,4.30
2022-08-08T06:10:34.877Z,5.37
2022-08-08T06:13:08.244Z,4.40
2022-08-08T06:15:50.589Z,4.30
2022-08-08T06:18:25.369Z,4.77
2022-08-08T06:20:57.142Z,4.23
2022-08-08T06:23:49.013Z,4.37
2022-08-08T06:26:43.744Z,5.20
2022-08-08T06:29:26.833Z,4.13
2022-08-08T06:32:11.073Z,4.90
2022-08-08T06:34:56.485Z,4.67
2022-08-08T06:37:40.272Z,4.47
2022-08-08T06:40:16.210Z,4.07
2022-08-08T06:42:55.655Z,4.30
2022-08-08T06:45:24.590Z,4.20
2022-08-08T06:48:01.454Z,4.10
2022-08-08T06:50:33.536Z,4.80
2022-08-08T06:53:14.152Z,4.70
2022-08-08T06:56:02.760Z,4.10
2022-08-08T06:58:33.651Z,5.00
2022-08-08T07:01:52.128Z,4.73
2022-08-08T07:04:41.375Z,4.37
2022-08-08T07:06:50.411Z,4.43
2022-08-08T07:09:21.611Z,4.70
2022-08-08T07:11:51.970Z,3.97
2022-08-08T07:14:27.315Z,4.33
2022-08-08T07:17:02.836Z,4.70
2022-08-08T07:19:44.405Z,4.30
2022-08-08T07:22:18.753Z,4.60
2022-08-08T07:24:53.652Z,4.10
2022-08-08T07:27:27.922Z,4.00
2022-08-08T07:30:18.078Z,4.23
2022-08-08T07:32:54.766Z,4.13
2022-08-08T07:35:28.929Z,3.80
2022-08-08T07:38:10.576Z,4.00
2022-08-08T07:40:50.543Z,3.90
2022-08-08T07:43:35.285Z,4.67
2022-08-08T07:46:23.616Z,4.07
2022-08-08T07:48:52.684Z,4.00
2022-08-08T07:51:23.952Z,3.97
2022-08-08T07:54:26.643Z,3.23
2022-08-08T07:57:03.923Z,3.50
2022-08-08T07:59:56.237Z,3.23
2022-08-08T08:02:35.147Z,3.87
2022-08-08T08:05:15.028Z,3.97
2022-08-08T08:07:45.872Z,4.30
2022-08-08T08:10:18.065Z,4.40
2022-08-08T08:13:25.108Z,4.07
2022-08-08T08:16:01.652Z,4.20
2022-08-08T08:18:51.893Z,4.17
2022-08-08T08:21:44.115Z,4.10
2022-08-08T08:24:15.552Z,3.40
2022-08-08T08:26:46.919Z,3.40
2022-08-08T08:29:21.106Z,3.53
2022-08-08T08:31:55.296Z,3.40
2022-08-08T08:34:31.921Z,2.83
2022-08-08T08:37:03.483Z,3.47
2022-08-08T08:40:00.472Z,3.57
2022-08-08T08:42:35.141Z,3.90
2022-08-08T08:45:21.708Z,3.70
2022-08-08T08:47:53.995Z,2.80
2022-08-08T08:50:33.077Z,3.13
2022-08-08T08:53:56.785Z,3.20
2022-08-08T08:55:55.941Z,3.30
2022-08-08T08:58:33.188Z,3.07
2022-08-08T09:01:08.592Z,2.83
2022-08-08T09:03:47.883Z,2.53
2022-08-08T09:06:28.572Z,2.93
2022-08-08T09:09:05.320Z,2.83
2022-08-08T09:11:47.227Z,2.70
2022-08-08T09:14:23.127Z,2.80
2022-08-08T09:16:55.450Z,3.33
2022-08-08T09:21:59.698Z,3.00
2022-08-08T09:22:26.029Z,2.80
2022-08-08T09:24:56.487Z,2.53
2022-08-08T09:27:55.653Z,2.27
2022-08-08T09:30:17.328Z,2.40
2022-08-08T09:33:01.358Z,2.47
2022-08-08T09:35:50.073Z,2.33
2022-08-08T09:38:32.966Z,2.37
2022-08-08T09:41:06.333Z,2.20
2022-08-08T09:44:06.413Z,2.75
2022-08-08T09:46:45.128Z,2.78
2022-08-08T09:49:42.306Z,2.28
2022-08-08T09:52:56.755Z,2.15
2022-08-08T09:55:05.912Z,2.70
2022-08-08T09:57:45.684Z,2.05
2022-08-08T10:00:49.611Z,1.83
2022-08-08T10:03:07.225Z,2.22
2022-08-08T10:05:37.779Z,2.20
2022-08-08T10:08:08.386Z,2.13
2022-08-08T10:10:41.720Z,1.98
2022-08-08T10:13:22.791Z,2.20
2022-08-08T10:16:02.096Z,2.78
2022-08-08T10:18:35.445Z,2.25
2022-08-08T10:21:22.914Z,2.30
2022-08-08T10:23:59.780Z,2.38
2022-08-08T10:26:52.006Z,2.60
2022-08-08T10:29:43.799Z,2.30
2022-08-08T10:32:37.272Z,2.20
2022-08-08T10:35:11.456Z,2.50
2022-08-08T10:37:51.852Z,2.25
2022-08-08T10:40:20.746Z,2.58
2022-08-08T10:42:51.604Z,2.25
2022-08-08T10:45:19.531Z,2.70
2022-08-08T10:47:55.693Z,2.65
2022-08-08T10:50:33.610Z,2.70
2022-08-08T10:53:07.501Z,2.50
2022-08-08T10:55:46.322Z,2.50
2022-08-08T10:58:15.649Z,2.15
2022-08-08T11:00:48.750Z,2.30
2022-08-08T11:04:00.568Z,2.20
2022-08-08T11:06:34.529Z,2.13
2022-08-08T11:09:15.173Z,2.70
2022-08-08T11:12:05.022Z,2.13
2022-08-08T11:14:48.467Z,2.03
2022-08-08T11:17:18.036Z,2.40
2022-08-08T11:20:11.027Z,1.98
2022-08-08T11:22:43.083Z,2.00
2022-08-08T11:25:14.454Z,2.17
2022-08-08T11:27:47.796Z,1.80
2022-08-08T11:30:24.099Z,2.08
2022-08-08T11:32:55.503Z,1.70
2022-08-08T11:35:38.522Z,2.17
2022-08-08T11:38:35.602Z,2.03
2022-08-08T11:41:02.938Z,1.80
2022-08-08T11:43:39.526Z,2.17
2022-08-08T11:46:14.451Z,2.40
2022-08-08T11:48:47.784Z,2.17
2022-08-08T11:51:30.178Z,2.00
2022-08-08T11:54:26.806Z,2.57
2022-08-08T11:56:56.506Z,2.10
2022-08-08T12:00:01.393Z,2.40
2022-08-08T12:02:41.256Z,2.17
2022-08-08T12:05:12.375Z,2.20
2022-08-08T12:07:52.167Z,2.17
2022-08-08T12:10:23.673Z,2.23
2022-08-08T12:13:01.118Z,2.47
2022-08-08T12:15:40.040Z,1.97
2022-08-08T12:18:16.009Z,2.23
2022-08-08T12:20:46.037Z,1.90
2022-08-08T12:23:30.678Z,2.27
2022-08-08T12:26:17.097Z,2.30
2022-08-08T12:28:56.859Z,2.40
2022-08-08T12:31:39.156Z,2.50
2022-08-08T12:34:37.527Z,2.47
2022-08-08T12:37:08.287Z,2.07
2022-08-08T12:40:01.334Z,3.00
2022-08-08T12:42:26.543Z,3.10
2022-08-08T12:45:04.790Z,2.57
2022-08-08T12:48:09.573Z,2.63
2022-08-08T12:50:47.953Z,2.70
2022-08-08T12:53:28.328Z,2.13
2022-08-08T12:56:17.666Z,2.70
2022-08-08T12:58:52.024Z,2.33
2022-08-08T13:01:35.007Z,2.50
2022-08-08T13:04:19.307Z,3.40
2022-08-08T13:07:00.679Z,2.67
2022-08-08T13:10:00.848Z,2.70
2022-08-08T13:12:29.480Z,2.73
2022-08-08T13:15:02.396Z,2.77
2022-08-08T13:17:53.999Z,2.50
2022-08-08T13:20:22.243Z,2.50
2022-08-08T13:22:59.319Z,3.10
2022-08-08T13:25:40.219Z,2.63
2022-08-08T13:28:08.205Z,2.23
2022-08-08T13:30:38.026Z,2.27
2022-08-08T13:33:06.203Z,2.53
2022-08-08T13:35:41.078Z,2.53
2022-08-08T13:38:13.354Z,2.00
2022-08-08T13:40:45.003Z,2.23
2022-08-08T13:43:13.830Z,2.40
2022-08-08T13:45:47.210Z,2.30
2022-08-08T13:48:25.280Z,2.73
2022-08-08T13:50:57.973Z,2.50
2022-08-08T13:53:53.170Z,2.40
2022-08-08T13:56:44.792Z,2.23
2022-08-08T13:59:32.908Z,2.70
2022-08-08T14:02:07.416Z,2.43
2022-08-08T14:04:38.685Z,2.20
2022-08-08T14:07:22.546Z,2.40
2022-08-08T14:10:05.792Z,2.53
2022-08-08T14:12:43.673Z,2.53
2022-08-08T14:15:24.738Z,2.57
2022-08-08T14:18:35.018Z,2.70
2022-08-08T14:21:01.241Z,2.47
2022-08-08T14:24:04.491Z,2.67
2022-08-08T14:26:29.517Z,2.57
2022-08-08T14:29:01.484Z,2.87
2022-08-08T14:32:05.752Z,2.63
2022-08-08T14:34:27.835Z,2.60
2022-08-08T14:36:57.790Z,2.30
2022-08-08T14:39:48.101Z,2.60
2022-08-08T14:42:13.784Z,2.33
2022-08-08T14:44:55.699Z,2.30
2022-08-08T14:47:25.682Z,2.57
2022-08-08T14:50:14.853Z,2.73
2022-08-08T14:52:54.111Z,2.60
2022-08-08T14:55:35.170Z,2.63
2022-08-08T14:58:16.899Z,2.40
2022-08-08T15:00:49.258Z,2.30
2022-08-08T15:03:18.712Z,2.40
2022-08-08T15:05:54.712Z,2.70
2022-08-08T15:08:35.641Z,2.40
2022-08-08T15:11:09.465Z,2.63
2022-08-08T15:14:00.318Z,2.40
2022-08-08T15:16:28.712Z,2.33
2022-08-08T15:18:56.641Z,2.60
2022-08-08T15:21:30.297Z,2.50
2022-08-08T15:23:58.714Z,2.80
2022-08-08T15:26:28.648Z,2.37
2022-08-08T15:28:58.303Z,2.60
2022-08-08T15:32:17.583Z,2.00
2022-08-08T15:34:30.087Z,2.70
2022-08-08T15:37:03.539Z,2.33
2022-08-08T15:39:38.185Z,2.70
2022-08-08T15:42:10.591Z,2.70
2022-08-08T15:44:42.977Z,2.67
2022-08-08T15:47:16.269Z,2.47
2022-08-08T15:49:48.660Z,3.00
2022-08-08T15:52:20.483Z,2.53
2022-08-08T15:54:51.699Z,2.80
2022-08-08T15:57:21.285Z,2.87
2022-08-08T16:00:05.564Z,2.80
2022-08-08T16:02:37.720Z,3.00
2022-08-08T16:05:14.195Z,2.30
2022-08-08T16:07:51.674Z,3.03
2022-08-08T16:13:07.773Z,2.80
2022-08-08T16:13:30.903Z,2.77
2022-08-08T16:16:09.692Z,3.10
2022-08-08T16:18:56.911Z,2.40
2022-08-08T16:21:29.127Z,2.93
2022-08-08T16:24:00.182Z,2.80
2022-08-08T16:26:33.832Z,2.70
2022-08-08T16:29:08.812Z,3.00
2022-08-08T16:31:40.815Z,2.63
2022-08-08T16:34:10.210Z,2.50
2022-08-08T16:36:40.747Z,2.37
2022-08-08T16:39:28.078Z,2.63
2022-08-08T16:42:01.146Z,2.77
2022-08-08T16:44:34.272Z,2.63
2022-08-08T16:47:21.827Z,2.93
2022-08-08T16:50:01.251Z,3.20
2022-08-08T16:55:02.049Z,2.73
2022-08-08T16:55:53.557Z,3.23
2022-08-08T16:58:13.841Z,3.00
2022-08-08T17:00:49.185Z,2.77
2022-08-08T17:03:24.731Z,3.40
2022-08-08T17:06:03.130Z,2.83
2022-08-08T17:08:31.663Z,2.93
2022-08-08T17:11:21.350Z,3.00
2022-08-08T17:14:18.880Z,2.80
2022-08-08T17:17:41.917Z,2.60
2022-08-08T17:20:19.217Z,3.10
2022-08-08T17:23:18.115Z,2.87
2022-08-08T17:26:14.571Z,2.70
2022-08-08T17:29:25.161Z,2.80
2022-08-08T17:32:13.697Z,2.83
2022-08-08T17:35:54.603Z,3.00
2022-08-08T17:38:10.321Z,3.23
2022-08-08T17:40:59.427Z,3.37
2022-08-08T17:44:00.870Z,2.80
2022-08-08T17:46:54.465Z,2.83
2022-08-08T17:49:43.578Z,3.00
2022-08-08T17:52:34.115Z,3.00
2022-08-08T17:56:06.192Z,3.07
2022-08-08T17:58:32.265Z,2.90
2022-08-08T18:01:29.905Z,2.67
2022-08-08T18:04:32.301Z,3.17
2022-08-08T18:08:01.171Z,3.00
2022-08-08T18:10:31.491Z,2.70
2022-08-08T18:13:20.191Z,2.40
2022-08-08T18:16:08.524Z,3.10
2022-08-08T18:18:57.871Z,2.63
2022-08-08T18:22:01.857Z,2.87
2022-08-08T18:24:51.112Z,2.73
2022-08-08T18:27:43.339Z,2.93
2022-08-08T18:30:34.602Z,2.80
2022-08-08T18:34:10.616Z,3.40
2022-08-08T18:36:32.950Z,2.90
2022-08-08T18:39:27.600Z,2.60
2022-08-08T18:42:18.427Z,3.07
2022-08-08T18:45:09.181Z,2.37
2022-08-08T18:48:19.006Z,2.97
2022-08-08T18:51:27.102Z,3.27
2022-08-08T18:54:22.073Z,3.40
2022-08-08T18:57:14.739Z,2.83
2022-08-08T19:00:03.948Z,3.20
2022-08-08T19:02:57.950Z,3.30
2022-08-08T19:05:54.455Z,3.30
2022-08-08T19:08:43.044Z,2.53
2022-08-08T19:11:33.511Z,2.50
2022-08-08T19:14:25.223Z,2.57
2022-08-08T19:17:29.373Z,2.50
2022-08-08T19:20:24.495Z,2.60
2022-08-08T19:23:12.976Z,2.80
2022-08-08T19:26:29.187Z,2.43
2022-08-08T19:28:51.318Z,2.50
2022-08-08T19:31:22.794Z,2.60
2022-08-08T19:34:04.753Z,2.90
2022-08-08T19:36:47.463Z,3.07
2022-08-08T19:39:16.301Z,2.50
2022-08-08T19:41:47.480Z,2.77
2022-08-08T19:44:34.813Z,2.83
2022-08-08T19:47:06.466Z,2.27
2022-08-08T19:49:37.589Z,2.77
2022-08-08T19:52:07.011Z,2.27
2022-08-08T19:54:36.183Z,2.77
2022-08-08T19:57:07.795Z,2.43
2022-08-08T19:59:36.075Z,2.97
2022-08-08T20:02:07.703Z,2.40
2022-08-08T20:04:39.086Z,2.90
2022-08-08T20:08:27.818Z,3.00
2022-08-08T20:09:58.543Z,2.90
2022-08-08T20:12:32.322Z,2.60
2022-08-08T20:15:14.510Z,3.30
2022-08-08T20:17:48.151Z,3.00
2022-08-08T20:20:36.047Z,2.80
2022-08-08T20:23:30.950Z,2.50
2022-08-08T20:26:27.341Z,2.70
2022-08-08T20:28:59.096Z,2.73
2022-08-08T20:31:28.238Z,3.20
2022-08-08T20:34:29.340Z,2.90
2022-08-08T20:36:59.802Z,3.00
2022-08-08T20:39:39.295Z,2.67
2022-08-08T20:42:16.054Z,2.63
2022-08-08T20:44:44.018Z,2.80
2022-08-08T20:47:23.555Z,3.03
2022-08-08T20:49:54.390Z,3.03
2022-08-08T20:52:25.616Z,2.80
2022-08-08T20:54:53.554Z,2.70
2022-08-08T20:57:28.949Z,3.33
2022-08-08T20:59:57.528Z,2.90
2022-08-08T21:02:27.521Z,2.90
2022-08-08T21:05:01.818Z,3.13
2022-08-08T21:07:47.804Z,2.93
2022-08-08T21:10:20.861Z,2.80
2022-08-08T21:12:54.181Z,2.87
2022-08-08T21:16:04.186Z,2.77
2022-08-08T21:18:12.070Z,2.57
2022-08-08T21:20:41.904Z,3.10
2022-08-08T21:23:17.916Z,2.70
2022-08-08T21:25:48.810Z,2.90
2022-08-08T21:28:33.521Z,2.77
2022-08-08T21:31:22.063Z,2.90
2022-08-08T21:33:51.770Z,2.73
2022-08-08T21:36:28.595Z,2.70
2022-08-08T21:38:57.726Z,3.10
2022-08-08T21:41:38.594Z,2.70
2022-08-08T21:44:14.775Z,2.87
2022-08-08T21:48:02.089Z,3.07
2022-08-08T21:49:35.130Z,2.67
2022-08-08T21:54:36.378Z,2.73
2022-08-08T21:55:02.971Z,2.60
2022-08-08T21:57:43.129Z,2.90
2022-08-08T22:00:25.845Z,2.43
2022-08-08T22:02:54.496Z,2.80
2022-08-08T22:05:23.049Z,3.00
2022-08-08T22:07:52.453Z,2.70
2022-08-08T22:10:32.606Z,2.70
2022-08-08T22:13:17.866Z,2.70
2022-08-08T22:15:59.770Z,2.93
2022-08-08T22:18:29.893Z,2.90
2022-08-08T22:20:59.417Z,2.80
2022-08-08T22:23:34.057Z,2.90
2022-08-08T22:26:27.167Z,2.90
2022-08-08T22:29:05.058Z,2.53
2022-08-08T22:31:38.809Z,3.00
2022-08-08T22:34:12.559Z,2.90
2022-08-08T22:36:43.400Z,2.87
2022-08-08T22:39:19.444Z,2.63
2022-08-08T22:41:49.418Z,3.10
2022-08-08T22:44:17.540Z,2.80
2022-08-08T22:46:45.833Z,3.23
2022-08-08T22:49:19.877Z,3.10
2022-08-08T22:51:48.487Z,2.90
2022-08-08T22:54:32.305Z,3.07
2022-08-08T22:57:11.729Z,3.17
2022-08-08T22:59:48.376Z,2.67
2022-08-08T23:02:28.596Z,3.00
2022-08-08T23:04:57.806Z,3.10
2022-08-08T23:07:51.430Z,2.90
2022-08-08T23:10:19.747Z,2.77
2022-08-08T23:12:51.772Z,2.63
2022-08-08T23:16:39.286Z,2.87
2022-08-08T23:18:11.604Z,2.60
2022-08-08T23:20:40.653Z,2.90
2022-08-08T23:23:08.651Z,2.83
2022-08-08T23:25:48.013Z,3.40
2022-08-08T23:28:17.808Z,2.60
2022-08-08T23:30:46.749Z,3.03
2022-08-08T23:33:21.094Z,3.17
2022-08-08T23:36:07.353Z,3.03
2022-08-08T23:38:44.275Z,3.10
2022-08-08T23:41:23.298Z,2.93
2022-08-08T23:43:56.754Z,2.70
2022-08-08T23:49:04.914Z,3.37
2022-08-08T23:49:14.452Z,2.90
2022-08-08T23:52:06.000Z,2.90
2022-08-08T23:54:41.893Z,2.90
2022-08-08T23:57:25.554Z,2.87
